Milton-Freewater, Oregon
Current Conditions -  °F | °C
As of 6:53 PM on Friday 21 Nov 2014 (Local Time) from KALW Reporting Station
Overcast Overcast  
Wind Chill: 52°   Ceiling: 4800
Heat Index: 52°   Visibility: 10mi
Dew Point: 40°   Wind: 30mph
Humidity: 63%   Direction: 160°SSE
Pressure: 29.49"   Gusts: 37mph
Location:  45.9139°N, 118.202°W
Report Text: KALW 220253Z AUTO 16026G32KT 10SM OVC048 11/04 A2949 RMK AO2 PK WND 16034/0231 RAE47 SLP990 P0002 60012 T01110044 58056
Loading
Personal Weather Stations






























Interactive Weather Map New forecast layout! Learn more

10-Day Weather Forecast

Advertisements
Track Severe Weather on mobile